Time;durP1;ratioP1;P1;durP2;ratioP2;P2;SDS_P1;SDS_P2;PMS_P1;PMS_P2;Temp;Humidity;BMP_temperature;BMP_pressure;BME280_temperature;BME280_humidity;BME280_pressure;Samples;Min_cycle;Max_cycle;Signal;HPM_P1;HPM_P2
2021/03/23 00:01:03;;;;;;;5.57;1.08;;;17.30;99.90;;;;;;5070895;28;20386;-87
2021/03/23 00:03:36;;;;;;;6.03;1.30;;;17.30;99.90;;;;;;5066325;28;20442;-88
2021/03/23 00:06:04;;;;;;;8.88;1.50;;;17.30;99.90;;;;;;5071066;28;20405;-87
2021/03/23 00:08:38;;;;;;;7.37;1.70;;;17.40;99.90;;;;;;5072874;28;20916;-87
2021/03/23 00:11:07;;;;;;;7.90;1.65;;;17.30;99.90;;;;;;5067538;28;20390;-83
2021/03/23 00:13:38;;;;;;;9.00;1.95;;;17.40;99.90;;;;;;5069697;28;20396;-86
2021/03/23 00:16:06;;;;;;;6.85;1.73;;;17.30;99.90;;;;;;5069606;28;20413;-85
2021/03/23 00:18:34;;;;;;;6.75;2.30;;;17.30;99.90;;;;;;5067269;28;20746;-87
2021/03/23 00:21:01;;;;;;;8.30;2.08;;;17.40;99.90;;;;;;5070934;28;20388;-86
2021/03/23 00:23:28;;;;;;;10.25;2.47;;;17.30;99.90;;;;;;5071738;28;20382;-87
2021/03/23 00:25:55;;;;;;;7.77;2.00;;;17.30;99.90;;;;;;5079057;28;20930;-85
2021/03/23 00:28:24;;;;;;;7.18;2.10;;;17.20;99.90;;;;;;5073478;28;20439;-86
2021/03/23 00:30:53;;;;;;;9.27;2.30;;;17.30;99.90;;;;;;5064918;28;20445;-85
2021/03/23 00:33:21;;;;;;;6.97;2.37;;;17.30;99.90;;;;;;5074195;28;20910;-85
2021/03/23 00:35:49;;;;;;;6.23;1.90;;;17.20;99.90;;;;;;5068909;28;20458;-85
2021/03/23 00:38:16;;;;;;;5.57;2.10;;;17.30;99.90;;;;;;5068412;28;20417;-85
2021/03/23 00:40:43;;;;;;;8.65;2.20;;;17.20;99.90;;;;;;5069453;28;20386;-85
2021/03/23 00:43:11;;;;;;;4.03;1.50;;;17.30;99.90;;;;;;5068154;28;21120;-85
2021/03/23 00:45:41;;;;;;;5.38;1.60;;;17.30;99.90;;;;;;5069181;28;20749;-85
2021/03/23 00:48:11;;;;;;;3.53;1.15;;;17.30;99.90;;;;;;5068118;28;20448;-84
2021/03/23 00:50:38;;;;;;;5.90;1.70;;;17.30;99.90;;;;;;5069406;28;20377;-84
2021/03/23 00:53:05;;;;;;;5.93;1.48;;;17.30;99.90;;;;;;5068768;28;20381;-83
2021/03/23 00:55:33;;;;;;;5.90;1.50;;;17.30;99.90;;;;;;5069069;28;20378;-86
2021/03/23 00:58:00;;;;;;;4.32;1.27;;;17.30;99.90;;;;;;5069495;28;20849;-89
2021/03/23 01:00:27;;;;;;;4.85;1.48;;;17.40;99.90;;;;;;5067347;28;20406;-87
2021/03/23 01:02:55;;;;;;;4.60;1.35;;;17.40;99.90;;;;;;5059076;28;20739;-88
2021/03/23 01:05:25;;;;;;;5.97;1.55;;;17.40;99.90;;;;;;5062447;28;20401;-87
2021/03/23 01:07:52;;;;;;;5.40;1.33;;;17.40;99.90;;;;;;5077422;28;20411;-87
2021/03/23 01:10:22;;;;;;;5.63;1.20;;;17.40;99.90;;;;;;5068244;28;20429;-88
2021/03/23 01:12:49;;;;;;;3.40;1.30;;;17.40;99.90;;;;;;5069227;28;20389;-87
2021/03/23 01:15:19;;;;;;;8.18;1.85;;;17.40;99.90;;;;;;5068612;28;20401;-86
2021/03/23 01:17:46;;;;;;;2.97;1.30;;;17.40;99.90;;;;;;5068785;28;20374;-85
2021/03/23 01:20:15;;;;;;;6.22;1.65;;;17.40;99.90;;;;;;5068487;28;20385;-87
2021/03/23 01:22:42;;;;;;;5.03;1.52;;;17.40;99.90;;;;;;5047681;28;20387;-86
2021/03/23 01:25:10;;;;;;;5.10;1.50;;;17.40;99.90;;;;;;5063504;28;20394;-88
2021/03/23 01:27:37;;;;;;;3.00;1.23;;;17.40;99.90;;;;;;5069042;28;20931;-88
2021/03/23 01:30:06;;;;;;;5.05;1.30;;;17.50;99.90;;;;;;5070182;28;20758;-87
2021/03/23 01:32:33;;;;;;;6.53;1.50;;;17.50;99.90;;;;;;5069915;28;20708;-88
2021/03/23 01:35:00;;;;;;;2.83;1.40;;;17.40;99.90;;;;;;5070033;28;20390;-87
2021/03/23 01:37:27;;;;;;;5.13;1.55;;;17.50;99.90;;;;;;5068836;28;20385;-87
2021/03/23 01:39:54;;;;;;;6.13;1.80;;;17.50;99.90;;;;;;5068776;28;20966;-86
2021/03/23 01:42:22;;;;;;;4.60;1.77;;;17.50;99.90;;;;;;5067926;28;20756;-87
2021/03/23 01:45:17;;;;;;;4.70;1.90;;;17.50;99.90;;;;;;5069274;28;20397;-88
2021/03/23 01:47:45;;;;;;;5.30;2.40;;;17.50;99.90;;;;;;5074494;28;20447;-90
2021/03/23 01:50:30;;;;;;;;;;;;;;;;;;;;;
2021/03/23 01:53:15;;;;;;;3.90;2.30;;;17.60;99.90;;;;;;5089033;28;20380;-92
2021/03/23 01:55:42;;;;;;;5.38;3.20;;;17.60;99.90;;;;;;5093698;28;20476;-87
2021/03/23 01:58:10;;;;;;;6.32;3.33;;;17.70;99.90;;;;;;5094737;28;20395;-87
2021/03/23 02:00:38;;;;;;;7.72;3.20;;;17.70;99.90;;;;;;5080791;28;20395;-90
2021/03/23 02:03:05;;;;;;;7.22;2.75;;;17.70;99.90;;;;;;5080204;28;20401;-89
2021/03/23 02:05:34;;;;;;;6.20;2.80;;;17.70;99.90;;;;;;5070864;28;20407;-84
2021/03/23 02:08:04;;;;;;;5.30;2.90;;;17.70;99.90;;;;;;5069217;28;20408;-84
2021/03/23 02:10:33;;;;;;;5.25;2.78;;;17.70;99.90;;;;;;5076381;28;20404;-86
2021/03/23 02:13:02;;;;;;;8.00;3.40;;;17.70;99.90;;;;;;5067198;28;20467;-86
2021/03/23 02:15:29;;;;;;;4.25;3.60;;;17.70;99.90;;;;;;5076170;28;20403;-85
2021/03/23 02:18:18;;;;;;;7.68;3.40;;;17.60;99.90;;;;;;5087084;28;20385;-84
2021/03/23 02:21:08;;;;;;;5.30;2.80;;;17.70;99.90;;;;;;5079792;28;20398;-87
2021/03/23 02:23:40;;;;;;;5.93;3.00;;;17.70;99.90;;;;;;5079578;28;20390;-83
2021/03/23 02:26:12;;;;;;;6.30;2.97;;;17.70;99.90;;;;;;5074898;28;20393;-85
2021/03/23 02:28:42;;;;;;;4.15;2.80;;;17.70;99.90;;;;;;5074658;28;20431;-84
2021/03/23 02:31:09;;;;;;;4.00;3.45;;;17.60;99.90;;;;;;5073720;28;20394;-85
2021/03/23 02:33:36;;;;;;;4.90;3.28;;;17.70;99.90;;;;;;5069611;28;20389;-85
2021/03/23 02:36:03;;;;;;;5.70;2.92;;;17.80;99.90;;;;;;5085285;28;20477;-83
2021/03/23 02:38:30;;;;;;;3.42;2.90;;;17.80;99.90;;;;;;5052463;28;20909;-88
2021/03/23 02:40:57;;;;;;;4.75;3.33;;;17.70;99.90;;;;;;5062930;28;20394;-86
2021/03/23 02:43:24;;;;;;;4.40;3.35;;;17.70;99.90;;;;;;5074961;28;20476;-87
2021/03/23 02:45:54;;;;;;;4.15;2.80;;;17.80;99.90;;;;;;5085176;28;20389;-87
2021/03/23 02:48:22;;;;;;;4.88;3.08;;;17.80;99.90;;;;;;5079582;28;20400;-85
2021/03/23 02:50:49;;;;;;;5.40;3.22;;;17.80;99.90;;;;;;5091431;28;20381;-88
2021/03/23 02:53:16;;;;;;;4.75;2.90;;;17.80;99.90;;;;;;5080837;28;20396;-88
2021/03/23 02:55:45;;;;;;;3.20;2.90;;;17.80;99.90;;;;;;5071517;28;20393;-88
2021/03/23 02:58:14;;;;;;;3.72;3.22;;;17.80;99.90;;;;;;5070858;28;20381;-86
2021/03/23 03:00:41;;;;;;;5.65;3.08;;;17.80;99.90;;;;;;5070254;28;20385;-85
2021/03/23 03:03:08;;;;;;;4.20;2.97;;;17.80;99.90;;;;;;5069511;28;20982;-87
2021/03/23 03:05:35;;;;;;;2.83;2.60;;;17.80;99.90;;;;;;5069152;28;20366;-85
2021/03/23 03:08:03;;;;;;;6.10;3.95;;;17.80;99.90;;;;;;5077103;28;20392;-85
2021/03/23 03:10:30;;;;;;;5.18;3.78;;;17.80;99.90;;;;;;5073435;28;20387;-85
2021/03/23 03:12:58;;;;;;;4.95;3.95;;;17.90;99.90;;;;;;5073855;28;20404;-86
2021/03/23 03:15:26;;;;;;;4.63;3.42;;;17.90;99.90;;;;;;5070173;28;20381;-85
2021/03/23 03:17:52;;;;;;;4.47;4.10;;;17.90;99.90;;;;;;5070126;28;20472;-86
2021/03/23 03:20:19;;;;;;;4.10;3.70;;;17.90;99.90;;;;;;5089279;28;20377;-86
2021/03/23 03:22:46;;;;;;;4.53;3.95;;;17.90;99.90;;;;;;5086638;28;21306;-85
2021/03/23 03:25:14;;;;;;;3.55;3.28;;;18.00;99.90;;;;;;5082188;28;20377;-86
2021/03/23 03:27:42;;;;;;;5.17;3.60;;;18.00;99.90;;;;;;5074421;28;20401;-86
2021/03/23 03:30:26;;;;;;;3.95;3.50;;;18.00;99.90;;;;;;5080009;28;20931;-85
2021/03/23 03:32:54;;;;;;;4.20;3.80;;;18.00;99.90;;;;;;5086878;28;20472;-85
2021/03/23 03:35:25;;;;;;;3.42;3.22;;;18.00;99.90;;;;;;5073709;28;20469;-83
2021/03/23 03:37:52;;;;;;;3.70;3.40;;;18.00;99.90;;;;;;5069677;28;20481;-85
2021/03/23 03:40:27;;;;;;;4.32;3.92;;;18.00;99.90;;;;;;5070524;28;20380;-84
2021/03/23 03:42:55;;;;;;;6.05;3.97;;;18.00;99.90;;;;;;5077378;28;20386;-86
2021/03/23 03:45:24;;;;;;;4.60;4.20;;;18.00;99.90;;;;;;5069251;28;20397;-85
2021/03/23 03:47:52;;;;;;;4.50;4.10;;;18.00;99.90;;;;;;5104808;28;20415;-84
2021/03/23 03:50:24;;;;;;;4.95;4.55;;;18.10;99.90;;;;;;5087046;28;20388;-84
2021/03/23 03:52:51;;;;;;;5.22;4.70;;;18.20;99.90;;;;;;5088029;28;20400;-85
2021/03/23 03:55:21;;;;;;;4.65;4.25;;;18.20;99.90;;;;;;5093509;28;20382;-85
2021/03/23 03:57:48;;;;;;;4.65;4.35;;;18.30;99.90;;;;;;5090054;28;20380;-89
2021/03/23 04:00:21;;;;;;;5.40;4.90;;;18.30;99.90;;;;;;5084667;28;20945;-87
2021/03/23 04:02:48;;;;;;;6.43;4.90;;;18.40;99.90;;;;;;5075393;28;20392;-88
2021/03/23 04:05:21;;;;;;;4.78;4.38;;;18.50;99.90;;;;;;5075355;28;20904;-86
2021/03/23 04:07:48;;;;;;;4.75;4.45;;;18.50;99.90;;;;;;5086876;28;20428;-87
2021/03/23 04:10:16;;;;;;;4.30;4.10;;;18.50;99.90;;;;;;5068633;28;20397;-87
2021/03/23 04:12:43;;;;;;;4.55;4.25;;;18.60;99.90;;;;;;5069197;28;20374;-86
2021/03/23 04:15:11;;;;;;;4.87;4.53;;;18.60;99.90;;;;;;5068944;28;21176;-87
2021/03/23 04:17:38;;;;;;;4.63;4.30;;;18.60;99.90;;;;;;5068171;28;20382;-86
2021/03/23 04:20:06;;;;;;;5.30;4.90;;;18.60;99.90;;;;;;5079570;28;20811;-86
2021/03/23 04:22:32;;;;;;;4.83;4.43;;;18.70;99.90;;;;;;5068677;28;20814;-86
2021/03/23 04:24:59;;;;;;;4.87;4.47;;;18.80;99.90;;;;;;5069090;28;20404;-85
2021/03/23 04:27:26;;;;;;;5.47;5.07;;;18.80;99.90;;;;;;5069889;28;20465;-85
2021/03/23 04:29:53;;;;;;;5.50;5.10;;;18.80;99.90;;;;;;5081074;28;20400;-85
2021/03/23 04:32:20;;;;;;;5.43;5.03;;;18.90;99.90;;;;;;5071721;28;20417;-84
2021/03/23 04:34:47;;;;;;;4.85;4.50;;;18.90;99.90;;;;;;5089612;28;20383;-85
2021/03/23 04:37:14;;;;;;;4.72;4.43;;;18.90;99.90;;;;;;5083360;28;20941;-85
2021/03/23 04:39:41;;;;;;;5.28;4.88;;;19.00;99.90;;;;;;5076994;28;20407;-84
2021/03/23 04:42:09;;;;;;;4.95;4.60;;;19.00;99.90;;;;;;5074565;28;20382;-85
2021/03/23 04:44:36;;;;;;;4.90;4.50;;;19.10;99.90;;;;;;5068725;28;20439;-85
2021/03/23 04:47:03;;;;;;;4.27;3.87;;;19.20;99.90;;;;;;5066875;28;20483;-82
2021/03/23 04:49:30;;;;;;;4.38;3.97;;;19.30;99.90;;;;;;5066467;28;20489;-83
2021/03/23 04:51:57;;;;;;;4.13;3.90;;;19.30;99.90;;;;;;5074448;28;20463;-83
2021/03/23 04:54:24;;;;;;;5.03;4.10;;;19.20;99.90;;;;;;5076233;28;20400;-83
2021/03/23 04:56:53;;;;;;;3.45;3.15;;;19.20;99.90;;;;;;5068445;28;20382;-83
2021/03/23 04:59:20;;;;;;;3.25;3.15;;;19.20;99.90;;;;;;5068554;28;20389;-83
2021/03/23 05:01:47;;;;;;;3.90;3.60;;;19.20;99.90;;;;;;5069495;28;20389;-83
2021/03/23 05:04:16;;;;;;;3.50;3.30;;;19.20;99.90;;;;;;5068479;28;20727;-83
2021/03/23 05:06:44;;;;;;;3.22;3.03;;;19.20;99.90;;;;;;5068919;28;20406;-82
2021/03/23 05:09:11;;;;;;;4.05;3.75;;;19.20;99.90;;;;;;5067583;28;20417;-81
2021/03/23 05:11:38;;;;;;;3.00;2.80;;;19.30;99.90;;;;;;5074696;28;20514;-84
2021/03/23 05:14:07;;;;;;;2.85;2.65;;;19.40;99.90;;;;;;5079492;28;20400;-84
2021/03/23 05:16:35;;;;;;;2.50;2.30;;;19.30;99.90;;;;;;5088717;28;20494;-82
2021/03/23 05:19:02;;;;;;;3.03;2.17;;;19.30;99.90;;;;;;5080213;28;20400;-82
2021/03/23 05:21:29;;;;;;;2.50;2.30;;;19.30;99.90;;;;;;5065957;28;20421;-83
2021/03/23 05:23:59;;;;;;;1.98;1.88;;;19.30;99.90;;;;;;5069222;28;20428;-81
2021/03/23 05:26:26;;;;;;;2.30;2.20;;;19.30;99.90;;;;;;5077851;28;20488;-83
2021/03/23 05:28:54;;;;;;;2.40;2.20;;;19.30;99.90;;;;;;5070022;28;20535;-83
2021/03/23 05:31:22;;;;;;;2.85;2.10;;;19.40;99.90;;;;;;5070982;28;20390;-83
2021/03/23 05:33:54;;;;;;;2.80;2.15;;;19.40;99.90;;;;;;5070884;28;20393;-84
2021/03/23 05:36:21;;;;;;;2.95;2.75;;;19.50;99.90;;;;;;5063803;28;20428;-84
2021/03/23 05:38:49;;;;;;;3.35;1.95;;;19.50;99.90;;;;;;5051038;28;20392;-83
2021/03/23 05:41:43;;;;;;;2.50;2.28;;;19.50;99.90;;;;;;5050874;28;20383;-83
2021/03/23 05:44:36;;;;;;;3.22;2.22;;;19.50;99.90;;;;;;5043369;28;20416;-85
2021/03/23 05:47:03;;;;;;;2.20;2.00;;;19.50;99.90;;;;;;5032448;28;20436;-85
2021/03/23 05:49:48;;;;;;;2.30;2.10;;;19.40;99.90;;;;;;5051551;28;20462;-84
2021/03/23 05:52:43;;;;;;;2.30;2.20;;;19.40;99.90;;;;;;5051563;28;20933;-83
2021/03/23 05:55:43;;;;;;;2.83;2.10;;;19.40;99.90;;;;;;5049214;28;20411;-83
2021/03/23 05:58:26;;;;;;;2.28;2.10;;;19.40;99.90;;;;;;5044804;28;20391;-83
2021/03/23 06:01:01;;;;;;;2.78;2.40;;;19.40;99.90;;;;;;5051288;28;20395;-84
2021/03/23 06:03:38;;;;;;;2.05;1.85;;;19.40;99.90;;;;;;5051385;28;20376;-83
2021/03/23 06:06:29;;;;;;;2.30;2.10;;;19.40;99.90;;;;;;5056329;28;20378;-84
2021/03/23 06:08:56;;;;;;;2.70;2.20;;;19.40;99.90;;;;;;5070950;28;20799;-84
2021/03/23 06:11:29;;;;;;;2.15;2.03;;;19.50;99.90;;;;;;5051394;28;20380;-83
2021/03/23 06:14:22;;;;;;;3.35;1.90;;;19.50;99.90;;;;;;5051270;28;20368;-84
2021/03/23 06:17:04;;;;;;;7.13;2.00;;;19.50;99.90;;;;;;5031341;28;20448;-84
2021/03/23 06:19:59;;;;;;;3.20;1.50;;;19.50;99.90;;;;;;5049648;28;20866;-84
2021/03/23 06:22:31;;;;;;;3.53;1.58;;;19.50;99.90;;;;;;5038914;28;20975;-84
2021/03/23 06:25:28;;;;;;;5.25;1.50;;;19.50;99.90;;;;;;5031333;28;20716;-84
2021/03/23 06:28:09;;;;;;;2.63;1.27;;;19.40;99.90;;;;;;5032739;28;20396;-86
2021/03/23 06:31:06;;;;;;;3.15;1.55;;;19.40;99.90;;;;;;5044641;28;20497;-84
2021/03/23 06:33:33;;;;;;;1.77;1.30;;;19.40;99.90;;;;;;5046498;28;20403;-83
2021/03/23 06:36:09;;;;;;;2.30;1.38;;;19.40;99.90;;;;;;5054830;28;20433;-85
2021/03/23 06:38:40;;;;;;;2.10;1.50;;;19.40;99.90;;;;;;5062506;28;20397;-85
2021/03/23 06:41:18;;;;;;;2.70;1.67;;;19.40;99.90;;;;;;5056504;28;20402;-85
2021/03/23 06:43:55;;;;;;;2.42;1.50;;;19.40;99.90;;;;;;5070640;28;21234;-84
2021/03/23 06:46:25;;;;;;;1.50;1.40;;;19.40;99.90;;;;;;5071028;28;20394;-87
2021/03/23 06:49:15;;;;;;;1.98;1.35;;;19.50;99.90;;;;;;5069354;28;20881;-84
2021/03/23 06:51:55;;;;;;;1.40;1.30;;;19.40;99.90;;;;;;5070940;28;20382;-84
2021/03/23 06:54:26;;;;;;;3.47;1.40;;;19.50;99.90;;;;;;5070202;28;20390;-84
2021/03/23 06:57:15;;;;;;;3.35;1.23;;;19.40;99.90;;;;;;5070740;28;20860;-85
2021/03/23 06:59:53;;;;;;;6.22;1.05;;;19.40;99.90;;;;;;5071032;28;20378;-85
2021/03/23 07:02:40;;;;;;;3.95;1.30;;;19.50;99.90;;;;;;5069794;28;20381;-85
2021/03/23 07:05:30;;;;;;;2.85;1.20;;;19.50;99.90;;;;;;5062488;28;20773;-85
2021/03/23 07:08:12;;;;;;;1.55;0.90;;;19.60;99.90;;;;;;5065049;28;20416;-85
2021/03/23 07:10:42;;;;;;;3.40;0.90;;;19.60;99.90;;;;;;5072835;28;20394;-84
2021/03/23 07:13:32;;;;;;;1.50;1.00;;;19.60;99.90;;;;;;5054506;28;20374;-87
2021/03/23 07:16:11;;;;;;;3.63;1.10;;;19.60;99.90;;;;;;5065222;28;20384;-85
2021/03/23 07:18:47;;;;;;;2.90;0.95;;;19.60;99.90;;;;;;5068935;28;20374;-86
2021/03/23 07:21:48;;;;;;;2.88;1.20;;;19.60;99.90;;;;;;5070317;28;20394;-86
2021/03/23 07:24:21;;;;;;;2.20;1.38;;;19.50;99.90;;;;;;5068848;28;20398;-84
2021/03/23 07:27:05;;;;;;;2.15;0.88;;;19.50;99.90;;;;;;5070270;28;20397;-86
2021/03/23 07:29:36;;;;;;;2.10;0.90;;;19.40;99.90;;;;;;5072460;28;20473;-86
2021/03/23 07:32:25;;;;;;;1.10;0.82;;;19.30;99.90;;;;;;5074941;28;20382;-86
2021/03/23 07:35:04;;;;;;;1.30;0.80;;;19.30;99.90;;;;;;5070244;28;20378;-85
2021/03/23 07:37:41;;;;;;;2.63;0.73;;;19.20;99.90;;;;;;5072147;28;20433;-84
2021/03/23 07:40:42;;;;;;;2.75;1.13;;;19.20;99.90;;;;;;5068197;28;20922;-87
2021/03/23 07:43:15;;;;;;;4.10;1.00;;;19.20;99.90;;;;;;5069636;28;20435;-86
2021/03/23 07:45:54;;;;;;;3.40;0.98;;;19.20;99.90;;;;;;5069892;28;20369;-86
2021/03/23 07:48:41;;;;;;;3.03;1.00;;;19.20;99.90;;;;;;5069800;28;20394;-86
2021/03/23 07:51:20;;;;;;;5.10;0.93;;;19.20;99.90;;;;;;5068327;28;20394;-87
2021/03/23 07:53:47;;;;;;;1.73;1.02;;;19.20;99.90;;;;;;5070266;28;20374;-88
2021/03/23 07:56:30;;;;;;;2.55;1.42;;;19.10;99.90;;;;;;5068715;28;20749;-85
2021/03/23 07:59:05;;;;;;;1.98;1.60;;;19.10;99.90;;;;;;5049862;28;20854;-85
2021/03/23 08:01:44;;;;;;;2.80;1.55;;;19.10;99.90;;;;;;5050214;28;20383;-86
2021/03/23 08:04:30;;;;;;;3.28;1.63;;;19.00;99.90;;;;;;5052714;28;20920;-84
2021/03/23 08:07:24;;;;;;;1.95;1.85;;;19.10;99.90;;;;;;5072690;28;20442;-86
2021/03/23 08:10:01;;;;;;;2.70;1.80;;;19.00;99.90;;;;;;5056365;28;20414;-89
2021/03/23 08:12:43;;;;;;;5.05;2.00;;;19.00;99.90;;;;;;5086526;28;20479;-87
2021/03/23 08:15:42;;;;;;;2.35;2.20;;;19.00;99.90;;;;;;5083621;28;20923;-86
2021/03/23 08:18:24;;;;;;;3.88;2.15;;;18.90;99.90;;;;;;5072062;28;20491;-87
2021/03/23 08:21:13;;;;;;;2.30;2.10;;;18.90;99.90;;;;;;5079914;28;20483;-87
2021/03/23 08:24:18;;;;;;;3.95;2.08;;;18.90;99.90;;;;;;5061524;28;21119;-87
2021/03/23 08:26:57;;;;;;;3.22;2.97;;;18.90;99.90;;;;;;5064364;28;20932;-88
2021/03/23 08:29:55;;;;;;;3.88;2.45;;;18.90;99.90;;;;;;5078836;28;20412;-87
2021/03/23 08:32:38;;;;;;;3.53;2.40;;;18.90;99.90;;;;;;5062432;28;20761;-86
2021/03/23 08:35:24;;;;;;;7.35;2.85;;;18.80;99.90;;;;;;5079379;28;20388;-87
2021/03/23 08:38:09;;;;;;;3.05;2.55;;;18.80;99.90;;;;;;5066908;28;20386;-85
2021/03/23 08:40:39;;;;;;;2.80;2.60;;;18.80;99.90;;;;;;5072208;28;20380;-84
2021/03/23 08:43:09;;;;;;;6.47;3.03;;;18.80;99.90;;;;;;5074213;28;20390;-83
2021/03/23 08:45:42;;;;;;;3.70;3.22;;;18.80;99.90;;;;;;5077856;28;20473;-86
2021/03/23 08:48:27;;;;;;;4.10;3.63;;;18.80;99.90;;;;;;5080214;28;20839;-86
2021/03/23 08:51:01;;;;;;;5.80;3.53;;;18.80;99.90;;;;;;5085905;28;20456;-86
2021/03/23 08:53:32;;;;;;;6.40;4.35;;;18.70;99.90;;;;;;5080214;28;20419;-85
2021/03/23 08:56:04;;;;;;;8.25;4.60;;;18.80;99.90;;;;;;5047637;28;20408;-86
2021/03/23 08:58:41;;;;;;;7.03;4.57;;;18.80;99.90;;;;;;5075583;28;20407;-85
2021/03/23 09:01:27;;;;;;;5.40;4.90;;;18.80;99.90;;;;;;5067750;28;20398;-87
2021/03/23 09:03:58;;;;;;;7.25;5.00;;;18.80;99.90;;;;;;5064680;28;20439;-88
2021/03/23 09:06:54;;;;;;;6.10;4.80;;;18.80;99.90;;;;;;5065208;28;20390;-86
2021/03/23 09:09:27;;;;;;;6.78;5.60;;;18.90;99.90;;;;;;5071939;28;20408;-86
2021/03/23 09:12:15;;;;;;;6.55;5.95;;;18.80;99.90;;;;;;5079357;28;20422;-85
2021/03/23 09:15:16;;;;;;;7.78;6.10;;;18.90;99.90;;;;;;5066664;28;20478;-85
2021/03/23 09:18:25;;;;;;;8.23;6.53;;;18.90;99.90;;;;;;5078581;28;20438;-86
2021/03/23 09:20:51;;;;;;;7.40;6.70;;;18.90;99.90;;;;;;5083303;28;20755;-86
2021/03/23 09:23:23;;;;;;;9.45;6.90;;;18.90;99.90;;;;;;5058452;28;20464;-85
2021/03/23 09:25:54;;;;;;;8.93;7.50;;;18.90;99.90;;;;;;5066544;28;21035;-85
2021/03/23 09:28:37;;;;;;;15.68;8.13;;;18.90;99.90;;;;;;5066483;28;20423;-85
2021/03/23 09:31:08;;;;;;;8.57;7.27;;;18.90;99.90;;;;;;5068011;28;20390;-85
2021/03/23 09:33:36;;;;;;;9.35;7.95;;;18.90;99.90;;;;;;5048708;28;20391;-85
2021/03/23 09:38:41;;;;;;;12.38;8.25;;;18.80;99.90;;;;;;5054338;28;20966;-85
2021/03/23 09:41:37;;;;;;;16.80;9.70;;;18.80;99.90;;;;;;5074088;28;20473;-85
2021/03/23 09:44:08;;;;;;;12.07;10.00;;;18.80;99.90;;;;;;5064636;28;20431;-84
2021/03/23 09:46:56;;;;;;;11.77;9.30;;;18.80;99.90;;;;;;5068484;28;20392;-85
2021/03/23 09:49:25;;;;;;;13.55;10.00;;;18.80;99.90;;;;;;5081097;28;20952;-88
2021/03/23 09:51:58;;;;;;;15.90;10.40;;;18.80;99.90;;;;;;5065633;28;22391;-86
2021/03/23 09:54:37;;;;;;;14.18;10.48;;;18.80;99.90;;;;;;5078008;28;20395;-86
2021/03/23 09:57:22;;;;;;;15.85;10.13;;;18.80;99.90;;;;;;5073028;28;20416;-86
2021/03/23 09:59:55;;;;;;;13.70;10.60;;;18.80;99.90;;;;;;5058739;28;20937;-83
2021/03/23 10:02:24;;;;;;;14.93;9.80;;;18.80;99.90;;;;;;5067478;28;20947;-86
2021/03/23 10:04:51;;;;;;;14.60;10.73;;;18.80;99.90;;;;;;5081596;28;20394;-86
2021/03/23 10:07:39;;;;;;;13.10;9.75;;;18.80;99.90;;;;;;5073981;28;20412;-84
2021/03/23 10:10:29;;;;;;;14.02;9.52;;;18.80;99.90;;;;;;5060725;28;20463;-86
2021/03/23 10:12:59;;;;;;;10.10;8.40;;;18.80;99.90;;;;;;5051530;28;20786;-87
2021/03/23 10:15:35;;;;;;;9.07;8.05;;;18.80;99.90;;;;;;5071436;28;20898;-86
2021/03/23 10:18:17;;;;;;;9.48;8.38;;;18.80;99.90;;;;;;5081341;28;20402;-85
2021/03/23 10:21:10;;;;;;;13.25;8.15;;;18.80;99.90;;;;;;5072060;28;20413;-85
2021/03/23 10:23:50;;;;;;;11.57;8.18;;;18.80;99.90;;;;;;5066811;28;20390;-86
2021/03/23 10:26:18;;;;;;;11.45;8.60;;;18.70;99.90;;;;;;5068168;28;20427;-86
2021/03/23 10:28:49;;;;;;;11.70;8.50;;;18.70;99.90;;;;;;5068249;28;20405;-85
2021/03/23 10:31:31;;;;;;;12.15;8.65;;;18.70;99.90;;;;;;5068903;28;20737;-87
2021/03/23 10:34:26;;;;;;;12.03;8.40;;;18.70;99.90;;;;;;5069732;28;20473;-86
2021/03/23 10:37:03;;;;;;;13.15;9.07;;;18.70;99.90;;;;;;5070842;28;20485;-85
2021/03/23 10:39:42;;;;;;;15.25;8.50;;;18.70;99.90;;;;;;5065684;28;20394;-86
2021/03/23 10:42:17;;;;;;;15.13;8.95;;;18.70;99.90;;;;;;5067854;28;20366;-85
2021/03/23 10:44:45;;;;;;;14.83;8.37;;;18.70;99.90;;;;;;5068648;28;20800;-85
2021/03/23 10:47:32;;;;;;;11.35;8.27;;;18.70;99.90;;;;;;5075394;28;20389;-86
2021/03/23 10:50:17;;;;;;;11.98;8.48;;;18.70;99.90;;;;;;5068075;28;20429;-86
2021/03/23 10:52:44;;;;;;;14.07;8.82;;;18.70;99.90;;;;;;5080265;28;20453;-85
2021/03/23 10:55:22;;;;;;;11.20;8.15;;;18.60;99.90;;;;;;5069724;28;20486;-86
2021/03/23 10:57:49;;;;;;;11.80;7.75;;;18.70;99.90;;;;;;5066379;28;20392;-86
2021/03/23 11:00:23;;;;;;;12.43;8.10;;;18.60;99.90;;;;;;5067549;28;20892;-86
2021/03/23 11:02:50;;;;;;;9.27;7.83;;;18.70;99.90;;;;;;5068778;28;20489;-86
2021/03/23 11:05:21;;;;;;;14.48;7.80;;;18.70;99.90;;;;;;5070264;28;20400;-86
2021/03/23 11:07:51;;;;;;;9.40;7.32;;;18.70;99.90;;;;;;5069621;28;20961;-86
2021/03/23 11:10:21;;;;;;;10.45;7.15;;;18.70;99.90;;;;;;5055585;28;20405;-86
2021/03/23 11:12:48;;;;;;;10.48;7.05;;;18.70;99.90;;;;;;5069963;28;20892;-85
2021/03/23 11:15:15;;;;;;;11.85;6.60;;;18.70;99.90;;;;;;5056220;28;20853;-86
2021/03/23 11:17:50;;;;;;;7.97;6.22;;;18.70;99.90;;;;;;5053901;28;20398;-85
2021/03/23 11:20:45;;;;;;;9.18;6.60;;;18.70;99.90;;;;;;5074352;28;20588;-87
2021/03/23 11:23:38;;;;;;;7.63;6.00;;;18.70;99.90;;;;;;5055341;28;20392;-86
2021/03/23 11:26:08;;;;;;;8.38;6.03;;;18.70;99.90;;;;;;5065139;28;20411;-87
2021/03/23 11:28:35;;;;;;;10.77;6.43;;;18.70;99.90;;;;;;5060207;28;20401;-86
2021/03/23 11:31:05;;;;;;;8.27;5.60;;;18.70;99.90;;;;;;5070703;28;20389;-84
2021/03/23 11:33:33;;;;;;;6.63;5.22;;;18.70;99.90;;;;;;5087522;28;20365;-85
2021/03/23 11:36:01;;;;;;;10.50;6.07;;;18.70;99.90;;;;;;5079428;28;20423;-84
2021/03/23 11:38:28;;;;;;;9.70;5.70;;;18.60;99.90;;;;;;5067216;28;20515;-84
2021/03/23 11:40:57;;;;;;;7.43;5.45;;;18.60;99.90;;;;;;5082084;28;20399;-85
2021/03/23 11:43:40;;;;;;;7.93;5.18;;;18.60;99.90;;;;;;5073202;28;20527;-84
2021/03/23 11:46:22;;;;;;;6.60;5.20;;;18.60;99.90;;;;;;5073236;28;20398;-84
2021/03/23 11:48:54;;;;;;;9.80;5.40;;;18.60;99.90;;;;;;5069222;28;20414;-85
2021/03/23 11:51:25;;;;;;;9.40;5.88;;;18.60;99.90;;;;;;5070023;28;20780;-86
2021/03/23 11:53:52;;;;;;;12.10;5.30;;;18.60;99.90;;;;;;5068628;28;20443;-83
2021/03/23 11:56:19;;;;;;;7.78;5.18;;;18.60;99.90;;;;;;5066904;28;20405;-86
2021/03/23 11:58:47;;;;;;;9.27;5.57;;;18.50;99.90;;;;;;5071159;28;20451;-86
2021/03/23 12:01:14;;;;;;;15.40;5.65;;;18.40;99.90;;;;;;5075722;28;20463;-85
2021/03/23 12:03:41;;;;;;;20.42;8.73;;;18.50;99.90;;;;;;5068822;28;20390;-86
2021/03/23 12:06:08;;;;;;;11.15;6.10;;;18.40;99.90;;;;;;5059616;28;20454;-85
2021/03/23 12:09:04;;;;;;;10.70;5.97;;;18.40;99.90;;;;;;5089164;28;20396;-84
2021/03/23 12:11:43;;;;;;;6.63;5.28;;;18.50;99.90;;;;;;5049174;28;20954;-85
2021/03/23 12:14:23;;;;;;;5.78;5.18;;;18.50;99.90;;;;;;5071078;28;20479;-86
2021/03/23 12:17:26;;;;;;;6.15;4.38;;;18.60;99.90;;;;;;5064643;28;20389;-83
2021/03/23 12:19:55;;;;;;;8.63;5.00;;;18.60;99.90;;;;;;5068194;28;20396;-85
2021/03/23 12:22:23;;;;;;;5.13;4.43;;;18.60;99.90;;;;;;5064505;28;20402;-84
2021/03/23 12:24:50;;;;;;;5.40;4.20;;;18.60;99.90;;;;;;5069282;28;20398;-83
2021/03/23 12:27:17;;;;;;;6.78;4.32;;;18.50;99.90;;;;;;5069865;28;20399;-82
2021/03/23 12:29:44;;;;;;;8.57;4.28;;;18.50;99.90;;;;;;5069437;28;20413;-83
2021/03/23 12:32:15;;;;;;;6.68;4.25;;;18.60;99.90;;;;;;5064526;28;20510;-84
2021/03/23 12:34:43;;;;;;;6.75;4.22;;;18.60;99.90;;;;;;5057018;28;20416;-84
2021/03/23 12:37:12;;;;;;;4.38;3.97;;;18.60;99.90;;;;;;5075064;28;20530;-83
2021/03/23 12:39:39;;;;;;;10.95;4.07;;;18.60;99.90;;;;;;5068062;28;20781;-83
2021/03/23 12:42:07;;;;;;;4.60;4.20;;;18.60;99.90;;;;;;5066185;28;20392;-83
2021/03/23 12:44:34;;;;;;;4.32;3.67;;;18.70;99.90;;;;;;5070303;28;20816;-84
2021/03/23 12:47:01;;;;;;;4.55;3.83;;;18.70;99.90;;;;;;5068987;28;20889;-84
2021/03/23 12:49:28;;;;;;;3.97;3.47;;;18.70;99.90;;;;;;5065414;28;20441;-83
2021/03/23 12:52:01;;;;;;;7.05;3.85;;;18.70;99.90;;;;;;5070217;28;20405;-83
2021/03/23 12:54:34;;;;;;;5.50;3.90;;;18.70;99.90;;;;;;5072847;28;20389;-83
2021/03/23 12:57:02;;;;;;;5.43;3.80;;;18.70;99.90;;;;;;5069052;28;20413;-84
2021/03/23 12:59:30;;;;;;;3.90;3.47;;;18.70;99.90;;;;;;5067837;28;20386;-84
2021/03/23 13:01:58;;;;;;;3.58;3.20;;;18.70;99.90;;;;;;5064366;28;20422;-84
2021/03/23 13:04:27;;;;;;;4.95;3.20;;;18.70;99.90;;;;;;5066729;28;20382;-84
2021/03/23 13:06:58;;;;;;;4.10;3.10;;;18.70;99.90;;;;;;5073175;28;20489;-84
2021/03/23 13:09:32;;;;;;;3.85;3.15;;;18.70;99.90;;;;;;5063281;28;20420;-84
2021/03/23 13:12:01;;;;;;;3.28;2.97;;;18.70;99.90;;;;;;5062325;28;20418;-84
2021/03/23 13:14:30;;;;;;;2.95;2.70;;;18.70;99.90;;;;;;5060607;28;20409;-85
2021/03/23 13:16:58;;;;;;;2.97;2.78;;;18.70;99.90;;;;;;5059651;28;20394;-85
2021/03/23 13:19:25;;;;;;;3.78;3.08;;;18.70;99.90;;;;;;5068558;28;20386;-86
2021/03/23 13:21:58;;;;;;;3.05;2.85;;;18.70;99.90;;;;;;5063366;28;20484;-86